Time;durP1;ratioP1;P1;durP2;ratioP2;P2;SDS_P1;SDS_P2;PMS_P1;PMS_P2;Temp;Humidity;BMP_temperature;BMP_pressure;BME280_temperature;BME280_humidity;BME280_pressure;Samples;Min_cycle;Max_cycle;Signal;HPM_P1;HPM_P2
2023/08/04 00:00:38;;;;;;;0.30;0.30;;;23.70;62.60;;;24.16;47.31;94452.72;5078100;28;20212;-39
2023/08/04 00:03:06;;;;;;;0.32;0.32;;;23.70;62.70;;;24.16;47.25;94462.63;5077767;28;20237;-39
2023/08/04 00:05:33;;;;;;;0.30;0.30;;;23.70;62.70;;;24.13;47.06;94451.44;5077661;28;20207;-39
2023/08/04 00:08:00;;;;;;;0.30;0.30;;;23.70;62.70;;;24.11;47.09;94448.22;5076936;28;20196;-39
2023/08/04 00:10:27;;;;;;;0.30;0.30;;;23.70;62.70;;;24.12;47.11;94447.16;5077605;28;20192;-39
2023/08/04 00:12:55;;;;;;;0.40;0.40;;;23.70;62.60;;;24.11;46.73;94444.78;5078481;28;20308;-38
2023/08/04 00:15:23;;;;;;;0.43;0.43;;;23.70;62.60;;;24.11;47.03;94439.41;5077541;28;20189;-39
2023/08/04 00:17:50;;;;;;;0.40;0.40;;;23.70;62.60;;;24.09;47.01;94442.34;5077228;28;20662;-39
2023/08/04 00:20:17;;;;;;;0.30;0.30;;;23.60;62.60;;;24.08;46.91;94434.63;5077477;28;20203;-39
2023/08/04 00:22:44;;;;;;;0.50;0.50;;;23.60;62.60;;;24.06;47.07;94436.78;5077410;28;20299;-38
2023/08/04 00:25:11;;;;;;;0.32;0.32;;;23.60;62.60;;;24.05;47.11;94444.03;5077373;28;20275;-39
2023/08/04 00:27:38;;;;;;;0.30;0.30;;;23.60;62.60;;;24.04;47.18;94436.28;5077390;28;20225;-39
2023/08/04 00:30:06;;;;;;;0.40;0.40;;;23.60;62.70;;;24.03;47.24;94434.69;5076345;28;20299;-39
2023/08/04 00:32:33;;;;;;;0.40;0.40;;;23.60;62.70;;;24.03;47.14;94440.84;5076226;28;20322;-39
2023/08/04 00:35:03;;;;;;;0.40;0.40;;;23.60;62.70;;;24.01;47.06;94437.66;5077198;28;20198;-39
2023/08/04 00:37:31;;;;;;;0.30;0.30;;;23.60;62.80;;;23.99;47.28;94434.47;5076999;28;20195;-39
2023/08/04 00:39:58;;;;;;;0.40;0.40;;;23.60;62.80;;;23.99;47.36;94434.47;5077161;28;20241;-39
2023/08/04 00:42:25;;;;;;;0.40;0.40;;;23.60;62.80;;;24.00;47.31;94437.94;5077040;28;20191;-39
2023/08/04 00:44:53;;;;;;;0.40;0.40;;;23.60;62.80;;;23.98;47.52;94430.97;5059294;28;20262;-39
2023/08/04 00:47:20;;;;;;;0.40;0.40;;;23.50;62.80;;;23.98;47.68;94439.00;5076735;28;20243;-39
2023/08/04 00:49:48;;;;;;;0.40;0.40;;;23.50;62.80;;;23.98;47.37;94440.91;5059575;28;20226;-39
2023/08/04 00:52:15;;;;;;;0.40;0.40;;;23.50;62.80;;;23.95;47.48;94444.97;5075904;28;20310;-39
2023/08/04 00:54:45;;;;;;;0.40;0.40;;;23.50;63.80;;;23.96;47.65;94465.31;5075890;28;20635;-39
2023/08/04 00:57:13;;;;;;;0.40;0.40;;;23.50;62.90;;;23.95;47.51;94476.31;5075871;28;20194;-39
2023/08/04 00:59:40;;;;;;;0.50;0.50;;;23.50;63.00;;;23.95;47.58;94484.34;5076223;28;20192;-39
2023/08/04 01:02:08;;;;;;;0.30;0.30;;;23.50;63.00;;;23.93;47.51;94483.84;5076630;28;20195;-39
2023/08/04 01:04:35;;;;;;;0.30;0.30;;;23.50;63.00;;;23.92;47.50;94477.66;5077146;28;20681;-39
2023/08/04 01:07:22;;;;;;;0.40;0.40;;;23.50;63.00;;;23.90;47.73;94466.44;5076511;28;20643;-39
2023/08/04 01:10:18;;;;;;;0.40;0.40;;;23.50;63.10;;;23.88;47.57;94467.81;5076155;28;20191;-39
2023/08/04 01:13:00;;;;;;;0.40;0.40;;;23.50;63.10;;;23.88;47.69;94463.25;5076699;28;20211;-39
2023/08/04 01:15:28;;;;;;;0.40;0.40;;;23.50;63.10;;;23.88;47.59;94467.81;5075463;28;20205;-39
2023/08/04 01:17:56;;;;;;;0.40;0.40;;;23.50;63.10;;;23.87;47.75;94474.25;5075203;28;20237;-39
2023/08/04 01:20:25;;;;;;;0.40;0.40;;;23.50;63.10;;;23.84;47.79;94475.63;5075380;28;20197;-38
2023/08/04 01:22:54;;;;;;;0.40;0.40;;;23.50;63.10;;;23.85;47.86;94473.72;5076509;28;20634;-39
2023/08/04 01:25:35;;;;;;;0.40;0.40;;;23.40;63.10;;;23.82;47.64;94467.84;5076171;28;20208;-39
2023/08/04 01:28:11;;;;;;;0.30;0.30;;;23.40;63.10;;;23.82;47.86;94467.06;5075231;28;20176;-39
2023/08/04 01:30:39;;;;;;;0.40;0.40;;;23.40;63.20;;;23.82;47.88;94467.06;5075837;28;20228;-39
2023/08/04 01:33:06;;;;;;;0.40;0.40;;;23.40;63.20;;;23.81;47.80;94462.78;5058450;28;20321;-39
2023/08/04 01:35:33;;;;;;;0.35;0.35;;;23.40;63.20;;;23.81;47.83;94460.94;5058564;28;20215;-39
2023/08/04 01:38:00;;;;;;;0.40;0.40;;;23.40;63.20;;;23.80;47.95;94462.00;5058321;28;20588;-38
2023/08/04 01:40:28;;;;;;;0.40;0.40;;;23.40;63.20;;;23.80;47.85;94461.19;5074941;28;20204;-39
2023/08/04 01:42:55;;;;;;;0.38;0.38;;;23.40;63.20;;;23.79;47.95;94464.94;5076398;28;20191;-39
2023/08/04 01:45:22;;;;;;;0.38;0.38;;;23.40;63.20;;;23.80;48.05;94471.91;5075636;28;20223;-39
2023/08/04 01:47:50;;;;;;;0.40;0.40;;;23.40;63.30;;;23.78;47.87;94477.56;5075982;28;20244;-39
2023/08/04 01:50:17;;;;;;;0.40;0.40;;;23.30;63.20;;;23.78;47.99;94482.13;5076004;28;20204;-39
2023/08/04 01:52:44;;;;;;;0.40;0.40;;;23.40;63.30;;;23.77;48.21;94488.56;5075532;28;20223;-39
2023/08/04 01:55:12;;;;;;;0.40;0.40;;;23.30;63.20;;;23.76;48.12;94493.09;5075612;28;20215;-39
2023/08/04 01:57:39;;;;;;;0.40;0.40;;;23.40;63.30;;;23.76;48.09;94509.16;5075218;28;20194;-39
2023/08/04 02:00:08;;;;;;;0.40;0.40;;;23.30;63.20;;;23.76;48.34;94516.41;5075336;28;20191;-39
2023/08/04 02:02:38;;;;;;;0.40;0.40;;;23.30;63.20;;;23.75;47.95;94504.09;5074878;28;20248;-39
2023/08/04 02:05:06;;;;;;;0.40;0.40;;;23.30;63.30;;;23.75;47.83;94504.88;5075987;28;20202;-39
2023/08/04 02:07:33;;;;;;;0.30;0.30;;;23.30;63.40;;;23.73;47.91;94504.41;5075219;28;20268;-39
2023/08/04 02:10:02;;;;;;;0.30;0.30;;;23.30;63.40;;;23.75;48.08;94499.53;5074384;28;20205;-39
2023/08/04 02:12:29;;;;;;;0.40;0.40;;;23.30;63.40;;;23.75;48.11;94493.38;5074531;28;20222;-39
2023/08/04 02:14:57;;;;;;;0.30;0.30;;;23.30;63.50;;;23.75;48.29;94490.72;5075512;28;20291;-39
2023/08/04 02:17:24;;;;;;;0.30;0.30;;;23.30;63.60;;;23.75;48.24;94485.34;5075798;28;20248;-39
2023/08/04 02:19:51;;;;;;;0.40;0.40;;;23.30;63.60;;;23.74;48.24;94487.25;5075132;28;20626;-39
2023/08/04 02:22:19;;;;;;;0.40;0.40;;;23.30;63.50;;;23.73;48.25;94488.31;5074233;28;20231;-39
2023/08/04 02:24:46;;;;;;;0.40;0.40;;;23.30;63.50;;;23.70;48.43;94483.53;5074329;28;20253;-39
2023/08/04 02:27:13;;;;;;;0.40;0.40;;;23.30;63.50;;;23.73;48.27;94482.16;5075134;28;20198;-39
2023/08/04 02:29:40;;;;;;;0.40;0.40;;;23.30;63.50;;;23.70;48.01;94475.50;5074951;28;20513;-38
2023/08/04 02:32:10;;;;;;;0.30;0.30;;;23.30;63.50;;;23.70;48.05;94477.38;5057815;28;20248;-38
2023/08/04 02:34:38;;;;;;;0.40;0.40;;;23.30;63.50;;;23.70;48.15;94483.53;5074173;28;20645;-39
2023/08/04 02:37:05;;;;;;;0.40;0.40;;;23.30;63.50;;;23.69;48.14;94473.91;5075269;28;20650;-39
2023/08/04 02:39:34;;;;;;;0.40;0.40;;;23.30;63.50;;;23.68;48.33;94461.63;5074840;28;20627;-39
2023/08/04 02:42:02;;;;;;;0.40;0.40;;;23.20;63.50;;;23.67;48.26;94455.44;5074649;28;20225;-39
2023/08/04 02:44:29;;;;;;;0.40;0.40;;;23.20;63.50;;;23.66;48.46;94455.75;5074789;28;20187;-39
2023/08/04 02:46:57;;;;;;;0.40;0.40;;;23.20;63.50;;;23.66;48.25;94453.84;5074933;28;20225;-39
2023/08/04 02:49:25;;;;;;;0.30;0.30;;;23.20;63.50;;;23.64;48.36;94447.19;5075149;28;20199;-39
2023/08/04 02:51:52;;;;;;;0.40;0.40;;;23.20;63.50;;;23.65;48.48;94452.25;5075325;28;20210;-39
2023/08/04 02:54:20;;;;;;;0.40;0.40;;;23.20;63.60;;;23.63;48.40;94448.28;5074805;28;20192;-38
2023/08/04 02:56:47;;;;;;;0.30;0.30;;;23.20;63.50;;;23.62;48.51;94449.34;5057270;28;20203;-39
2023/08/04 02:59:14;;;;;;;0.40;0.40;;;23.20;63.50;;;23.61;48.51;94456.59;5057121;28;20208;-39
2023/08/04 03:01:41;;;;;;;0.30;0.30;;;23.20;63.60;;;23.61;48.42;94453.13;5074770;28;20656;-39
2023/08/04 03:04:08;;;;;;;0.40;0.40;;;23.20;63.60;;;23.61;48.57;94443.22;5074743;28;20652;-39
2023/08/04 03:06:35;;;;;;;0.47;0.47;;;23.20;63.60;;;23.60;48.50;94430.91;5074703;28;20190;-39
2023/08/04 03:09:02;;;;;;;0.40;0.40;;;23.20;63.60;;;23.61;48.61;94423.69;5074651;28;20670;-39
2023/08/04 03:11:30;;;;;;;0.40;0.40;;;23.20;63.60;;;23.58;48.48;94417.03;5057160;28;20191;-38
2023/08/04 03:13:57;;;;;;;0.30;0.30;;;23.20;63.60;;;23.58;48.44;94419.69;5074943;28;20199;-39
2023/08/04 03:16:24;;;;;;;0.40;0.40;;;23.20;63.60;;;23.57;48.41;94428.81;5074943;28;20185;-38
2023/08/04 03:18:51;;;;;;;0.40;0.40;;;23.20;63.70;;;23.56;48.37;94437.91;5074484;28;20630;-38
2023/08/04 03:21:18;;;;;;;0.40;0.40;;;23.20;63.60;;;23.57;48.49;94436.84;5074922;28;20186;-39
2023/08/04 03:23:45;;;;;;;0.40;0.40;;;23.20;63.60;;;23.56;48.59;94437.91;5077576;28;20641;-39
2023/08/04 03:26:12;;;;;;;0.40;0.40;;;23.20;63.70;;;23.57;48.93;94454.75;5078752;28;20591;-39
2023/08/04 03:28:39;;;;;;;0.38;0.38;;;23.20;63.80;;;23.56;48.64;94453.97;5078296;28;20198;-39
2023/08/04 03:31:06;;;;;;;0.40;0.40;;;23.20;63.90;;;23.57;49.04;94452.91;5078365;28;20278;-39
2023/08/04 03:33:34;;;;;;;0.32;0.32;;;23.10;63.90;;;23.59;48.81;94441.91;5078204;28;20548;-39
2023/08/04 03:36:02;;;;;;;0.30;0.30;;;23.20;64.00;;;23.59;48.78;94447.25;5077430;28;20210;-39
2023/08/04 03:38:29;;;;;;;0.40;0.40;;;23.20;64.00;;;23.59;48.85;94448.03;5078292;28;20187;-39
2023/08/04 03:40:56;;;;;;;0.38;0.38;;;23.20;64.00;;;23.60;48.92;94430.13;5078196;28;20191;-39
2023/08/04 03:43:23;;;;;;;0.30;0.30;;;23.20;64.10;;;23.61;49.08;94426.34;5078079;28;20309;-39
2023/08/04 03:45:50;;;;;;;0.40;0.40;;;23.20;64.10;;;23.61;49.13;94429.03;5077879;28;20247;-39
2023/08/04 03:48:17;;;;;;;0.32;0.32;;;23.20;64.10;;;23.61;49.21;94434.38;5078241;28;20601;-37
2023/08/04 03:50:44;;;;;;;0.40;0.40;;;23.20;64.20;;;23.60;49.19;94430.91;5060974;28;20203;-44
2023/08/04 03:53:11;;;;;;;0.40;0.40;;;23.20;64.20;;;23.62;49.18;94435.97;5078884;28;20246;-36
2023/08/04 03:55:38;;;;;;;0.40;0.40;;;23.20;64.10;;;23.62;48.98;94439.44;5078039;28;20205;-37
2023/08/04 03:58:05;;;;;;;0.40;0.40;;;23.20;64.10;;;23.60;49.08;94449.63;5078311;28;20706;-37
2023/08/04 04:00:32;;;;;;;0.40;0.40;;;23.20;64.00;;;23.57;49.21;94458.25;5076838;28;20627;-37
2023/08/04 04:02:59;;;;;;;0.40;0.40;;;23.20;63.90;;;23.55;48.97;94455.06;5077775;28;20199;-37
2023/08/04 04:05:27;;;;;;;0.30;0.30;;;23.20;63.80;;;23.54;48.72;94466.84;5078047;28;20280;-37
2023/08/04 04:07:54;;;;;;;0.40;0.40;;;23.20;63.80;;;23.53;48.93;94467.13;5077709;28;20249;-37
2023/08/04 04:10:21;;;;;;;0.30;0.30;;;23.20;63.80;;;23.51;49.03;94462.06;5077555;28;20249;-37
2023/08/04 04:12:48;;;;;;;0.30;0.30;;;23.20;63.90;;;23.48;48.70;94468.78;5077803;28;20650;-37
2023/08/04 04:15:15;;;;;;;0.40;0.40;;;23.10;63.80;;;23.48;48.80;94484.03;5077863;28;20541;-37
2023/08/04 04:17:42;;;;;;;0.40;0.40;;;23.10;63.80;;;23.44;48.77;94483.81;5077894;28;20197;-37
2023/08/04 04:20:10;;;;;;;0.40;0.40;;;23.10;63.80;;;23.43;48.87;94476.06;5076498;28;20290;-37
2023/08/04 04:22:37;;;;;;;0.30;0.30;;;23.10;63.90;;;23.42;48.90;94479.81;5077438;28;20206;-37
2023/08/04 04:25:04;;;;;;;0.40;0.40;;;23.00;63.80;;;23.39;48.98;94486.56;5077695;28;20220;-37
2023/08/04 04:27:31;;;;;;;0.32;0.32;;;23.00;63.80;;;23.37;48.77;94496.72;5077419;28;20203;-37
2023/08/04 04:29:58;;;;;;;0.40;0.40;;;23.00;63.90;;;23.36;48.91;94486.31;5059875;28;20203;-37
2023/08/04 04:32:25;;;;;;;0.38;0.38;;;23.00;63.90;;;23.36;48.84;94489.00;5077254;28;20221;-37
2023/08/04 04:34:53;;;;;;;0.40;0.40;;;23.00;64.00;;;23.36;48.82;94494.34;5076408;28;20187;-37
2023/08/04 04:37:20;;;;;;;0.40;0.40;;;22.90;64.00;;;23.35;49.14;94496.19;5077221;28;20187;-37
2023/08/04 04:39:47;;;;;;;0.40;0.40;;;22.90;64.00;;;23.36;48.94;94492.44;5077602;28;20191;-37
2023/08/04 04:42:16;;;;;;;0.30;0.30;;;22.90;64.00;;;23.36;49.02;94491.66;5076057;28;20715;-37
2023/08/04 04:44:44;;;;;;;0.40;0.40;;;22.90;64.00;;;23.36;48.98;94487.09;5076259;28;20239;-37
2023/08/04 04:47:11;;;;;;;0.40;0.40;;;22.90;64.00;;;23.36;49.12;94480.97;5077356;28;20543;-37
2023/08/04 04:49:38;;;;;;;0.40;0.40;;;22.90;64.10;;;23.34;49.20;94482.03;5077066;28;20195;-37
2023/08/04 04:52:06;;;;;;;0.40;0.40;;;22.90;64.10;;;23.32;49.15;94481.50;5076853;28;20297;-37
2023/08/04 04:54:33;;;;;;;0.30;0.30;;;22.90;64.10;;;23.32;49.20;94475.38;5075956;28;20261;-37
2023/08/04 04:57:00;;;;;;;0.40;0.40;;;22.90;64.20;;;23.33;49.13;94476.97;5076818;28;20194;-37
2023/08/04 04:59:27;;;;;;;0.30;0.30;;;22.90;64.20;;;23.33;49.15;94469.75;5077279;28;20516;-37
2023/08/04 05:01:54;;;;;;;0.30;0.30;;;22.90;64.20;;;23.34;49.30;94465.97;5076890;28;20257;-37
2023/08/04 05:04:21;;;;;;;0.30;0.30;;;22.90;64.30;;;23.35;49.11;94472.13;5076896;28;20261;-37
2023/08/04 05:06:49;;;;;;;0.30;0.30;;;23.00;64.40;;;23.36;49.39;94463.00;5076856;28;20190;-37
2023/08/04 05:09:16;;;;;;;0.30;0.30;;;22.90;64.40;;;23.37;49.54;94467.28;5076397;28;20282;-37
2023/08/04 05:11:43;;;;;;;0.40;0.40;;;23.00;64.50;;;23.39;49.54;94470.50;5076483;28;20203;-37
2023/08/04 05:14:10;;;;;;;0.38;0.38;;;23.00;64.50;;;23.41;49.35;94481.72;5076631;28;20223;-37
2023/08/04 05:16:37;;;;;;;0.40;0.40;;;23.00;64.50;;;23.41;49.66;94479.03;5076475;28;20194;-37
2023/08/04 05:19:05;;;;;;;0.40;0.40;;;23.00;64.50;;;23.42;50.01;94485.97;5076483;28;20222;-37
2023/08/04 05:21:32;;;;;;;0.40;0.40;;;23.00;64.50;;;23.42;49.60;94479.81;5076550;28;20234;-37
2023/08/04 05:23:59;;;;;;;0.30;0.30;;;23.00;64.50;;;23.44;49.59;94483.03;5075751;28;20198;-37
2023/08/04 05:26:26;;;;;;;0.32;0.32;;;23.00;64.40;;;23.44;49.70;94483.03;5076445;28;20616;-37
2023/08/04 05:28:54;;;;;;;0.40;0.40;;;23.10;64.50;;;23.46;49.65;94491.56;5076421;28;20194;-37
2023/08/04 05:31:21;;;;;;;0.40;0.40;;;23.10;64.50;;;23.45;49.89;94501.47;5075249;28;20685;-37
2023/08/04 05:33:48;;;;;;;0.40;0.40;;;23.10;64.40;;;23.47;49.80;94495.81;5075980;28;20226;-37
2023/08/04 05:36:15;;;;;;;0.40;0.40;;;23.10;64.50;;;23.48;49.80;94502.78;5076126;28;20195;-37
2023/08/04 05:38:44;;;;;;;0.40;0.40;;;23.10;64.50;;;23.49;49.68;94505.16;5076044;28;20531;-37
2023/08/04 05:41:11;;;;;;;0.40;0.40;;;23.10;64.50;;;23.49;49.63;94499.03;5075032;28;20195;-37
2023/08/04 05:43:38;;;;;;;0.40;0.40;;;23.10;64.50;;;23.46;49.79;94503.06;5075867;28;20224;-37
2023/08/04 05:46:06;;;;;;;0.30;0.30;;;23.20;64.60;;;23.52;49.62;94508.38;5075711;28;20273;-37
2023/08/04 05:48:33;;;;;;;0.40;0.40;;;23.20;64.60;;;23.52;49.57;94511.03;5076233;28;20201;-39
2023/08/04 05:51:01;;;;;;;0.40;0.40;;;23.20;64.50;;;23.52;49.79;94513.72;5075905;28;20199;-37
2023/08/04 05:53:28;;;;;;;0.40;0.40;;;23.20;64.50;;;23.51;49.73;94520.97;5076270;28;20222;-39
2023/08/04 05:55:55;;;;;;;0.40;0.40;;;23.20;64.50;;;23.52;49.61;94522.53;5075877;28;20269;-36
2023/08/04 05:58:23;;;;;;;0.30;0.30;;;23.20;64.60;;;23.53;49.73;94521.47;5075926;28;20192;-39
2023/08/04 06:00:50;;;;;;;0.40;0.40;;;23.20;64.50;;;23.54;49.84;94524.94;5076279;28;20187;-39
2023/08/04 06:03:17;;;;;;;0.40;0.40;;;23.20;64.50;;;23.53;49.84;94524.13;5074773;28;20203;-39
2023/08/04 06:05:44;;;;;;;0.30;0.30;;;23.20;64.50;;;23.54;49.91;94533.78;5075537;28;20528;-39
2023/08/04 06:08:12;;;;;;;0.40;0.40;;;23.20;64.50;;;23.54;49.75;94532.97;5075452;28;20190;-39
2023/08/04 06:10:39;;;;;;;0.40;0.40;;;23.20;64.50;;;23.54;50.05;94533.78;5075542;28;20223;-40
2023/08/04 06:13:06;;;;;;;0.40;0.40;;;23.20;64.50;;;23.55;49.81;94537.25;5074622;28;20329;-39
2023/08/04 06:15:34;;;;;;;0.40;0.40;;;23.20;64.50;;;23.55;49.96;94538.03;5075374;28;20218;-37
2023/08/04 06:18:01;;;;;;;0.40;0.40;;;23.20;64.60;;;23.56;49.88;94536.16;5075637;28;20516;-36
2023/08/04 06:20:29;;;;;;;0.40;0.40;;;23.20;64.60;;;23.56;49.79;94533.47;5075602;28;20290;-39
2023/08/04 06:22:56;;;;;;;0.40;0.40;;;23.20;64.60;;;23.57;49.85;94530.53;5076028;28;20278;-39
2023/08/04 06:25:23;;;;;;;0.40;0.40;;;23.20;64.60;;;23.59;49.79;94522.22;5075190;28;20674;-37
2023/08/04 06:27:53;;;;;;;0.40;0.40;;;23.30;64.70;;;23.59;49.79;94536.38;5075440;28;20206;-37
2023/08/04 06:30:20;;;;;;;0.40;0.40;;;23.30;64.70;;;23.60;49.84;94537.97;5075866;28;20188;-37
2023/08/04 06:32:48;;;;;;;0.40;0.40;;;23.30;64.60;;;23.60;49.82;94537.97;5074636;28;20280;-36
2023/08/04 06:35:15;;;;;;;0.40;0.40;;;23.30;64.70;;;23.62;50.05;94532.34;5075483;28;20206;-37
2023/08/04 06:37:43;;;;;;;0.40;0.40;;;23.30;65.50;;;23.62;49.87;94533.16;5074475;28;20183;-37
2023/08/04 06:40:10;;;;;;;0.30;0.30;;;23.30;64.60;;;23.65;49.93;94529.13;5075248;28;20194;-37
2023/08/04 06:42:38;;;;;;;0.40;0.40;;;23.30;64.70;;;23.64;49.73;94532.88;5074425;28;20198;-39
2023/08/04 06:45:07;;;;;;;0.40;0.40;;;23.30;64.70;;;23.63;50.11;94529.41;5057797;28;20693;-39
2023/08/04 06:47:34;;;;;;;0.40;0.40;;;23.30;64.70;;;23.64;50.08;94530.19;5075583;28;20545;-39
2023/08/04 06:50:03;;;;;;;0.30;0.30;;;23.30;64.70;;;23.66;50.03;94544.09;5073907;28;20191;-37
2023/08/04 06:52:31;;;;;;;0.40;0.40;;;23.40;64.70;;;23.67;49.86;94535.00;5075099;28;20192;-37
2023/08/04 06:54:58;;;;;;;0.40;0.40;;;23.30;64.60;;;23.66;49.92;94546.78;5074834;28;20269;-37
2023/08/04 06:57:25;;;;;;;0.40;0.40;;;23.40;64.60;;;23.66;49.80;94539.53;5076755;28;20187;-37
2023/08/04 06:59:52;;;;;;;0.40;0.40;;;23.40;64.70;;;23.66;50.18;94555.59;5081330;28;20194;-37
2023/08/04 07:02:19;;;;;;;0.40;0.40;;;23.40;64.70;;;23.67;49.96;94549.16;5081740;28;20200;-37
2023/08/04 07:04:46;;;;;;;0.40;0.40;;;23.40;64.60;;;23.67;49.73;94549.16;5082022;28;20202;-36
2023/08/04 07:07:13;;;;;;;0.40;0.40;;;23.40;64.60;;;23.68;49.88;94544.63;5081820;28;20201;-39
2023/08/04 07:09:40;;;;;;;0.30;0.30;;;23.40;64.60;;;23.69;49.79;94534.69;5081250;28;20200;-37
2023/08/04 07:12:08;;;;;;;0.30;0.30;;;23.40;64.60;;;23.70;49.94;94545.13;5082195;28;20203;-37
2023/08/04 07:14:35;;;;;;;0.40;0.40;;;23.40;64.60;;;23.70;49.79;94538.97;5081379;28;20216;-37
2023/08/04 07:17:03;;;;;;;0.40;0.40;;;23.40;64.50;;;23.71;49.89;94540.56;5080095;28;20286;-36
2023/08/04 07:19:30;;;;;;;0.40;0.40;;;23.40;64.60;;;23.73;49.60;94535.72;5080495;28;20191;-38
2023/08/04 07:21:57;;;;;;;0.32;0.32;;;23.40;64.60;;;23.73;49.73;94543.75;5080347;28;20207;-37
2023/08/04 07:24:25;;;;;;;0.35;0.35;;;23.40;64.50;;;23.74;49.69;94550.69;5081455;28;20285;-39
2023/08/04 07:26:54;;;;;;;0.40;0.40;;;23.50;64.60;;;23.76;49.82;94537.84;5081373;28;20264;-36
2023/08/04 07:29:20;;;;;;;0.30;0.30;;;23.40;64.50;;;23.76;49.51;94527.91;5080768;28;20587;-37
2023/08/04 07:31:48;;;;;;;0.40;0.40;;;23.50;64.60;;;23.77;49.52;94528.72;5081773;28;20196;-39
2023/08/04 07:34:16;;;;;;;0.30;0.30;;;23.50;64.50;;;23.79;49.53;94537.25;5080622;28;20266;-39
2023/08/04 07:36:43;;;;;;;0.30;0.30;;;23.50;64.40;;;23.81;49.55;94540.44;5082288;28;20261;-37
2023/08/04 07:39:11;;;;;;;0.40;0.40;;;23.50;64.40;;;23.82;49.76;94528.66;5080452;28;20191;-39
2023/08/04 07:41:38;;;;;;;0.40;0.40;;;23.50;64.40;;;23.83;49.47;94532.94;5081327;28;20207;-37
2023/08/04 07:44:05;;;;;;;0.40;0.40;;;23.50;64.40;;;23.86;49.47;94539.59;5081387;28;20207;-39
2023/08/04 07:46:32;;;;;;;0.40;0.40;;;23.50;64.40;;;23.87;49.63;94536.63;5080787;28;20302;-39
2023/08/04 07:49:00;;;;;;;0.30;0.30;;;23.50;64.40;;;23.89;49.44;94541.69;5080914;28;20195;-37
2023/08/04 07:51:28;;;;;;;0.38;0.38;;;23.50;64.40;;;23.89;49.45;94544.38;5082182;28;20198;-37
2023/08/04 07:53:56;;;;;;;0.30;0.30;;;23.60;64.40;;;23.92;49.36;94554.53;5080069;28;20591;-36
2023/08/04 07:56:24;;;;;;;0.30;0.30;;;23.60;64.40;;;23.93;49.53;94554.28;5081297;28;20200;-39
2023/08/04 07:58:51;;;;;;;0.40;0.40;;;23.60;64.30;;;23.96;49.24;94555.56;5080355;28;20222;-39
2023/08/04 08:01:18;;;;;;;0.30;0.30;;;23.60;64.30;;;23.98;49.62;94556.88;5080000;28;20213;-39
2023/08/04 08:03:45;;;;;;;0.40;0.40;;;23.60;64.20;;;23.97;49.21;94552.63;5081343;28;20234;-39
2023/08/04 08:06:13;;;;;;;0.30;0.30;;;23.70;64.30;;;24.01;49.23;94560.91;5080971;28;20203;-39
2023/08/04 08:08:40;;;;;;;0.30;0.30;;;23.70;64.20;;;24.02;49.36;94561.69;5079300;28;20201;-37
2023/08/04 08:11:09;;;;;;;0.30;0.30;;;23.70;64.20;;;24.05;49.47;94558.44;5077824;28;20262;-39
2023/08/04 08:13:37;;;;;;;0.30;0.30;;;23.70;64.20;;;24.06;49.37;94568.88;5077585;28;20227;-39
2023/08/04 08:16:13;;;;;;;0.40;0.40;;;23.70;64.20;;;24.08;49.41;94571.25;5076777;28;20635;-39
2023/08/04 08:18:45;;;;;;;0.40;0.40;;;23.70;64.00;;;24.08;49.03;94571.25;5076992;28;20201;-39
2023/08/04 08:21:13;;;;;;;0.40;0.40;;;23.80;64.10;;;24.11;49.21;94574.16;5077659;28;20192;-36
2023/08/04 08:23:41;;;;;;;0.40;0.40;;;23.70;64.10;;;24.13;49.21;94571.19;5078242;28;20235;-36
2023/08/04 08:26:08;;;;;;;0.40;0.40;;;23.80;64.00;;;24.15;48.92;94563.66;5077355;28;20599;-36
2023/08/04 08:28:35;;;;;;;0.32;0.32;;;23.80;64.00;;;24.16;48.94;94567.94;5078312;28;20287;-39
2023/08/04 08:31:02;;;;;;;0.40;0.40;;;23.80;64.00;;;24.19;49.00;94564.69;5077345;28;20534;-36
2023/08/04 08:33:33;;;;;;;0.40;0.40;;;23.80;64.00;;;24.21;48.95;94569.78;5076535;28;20634;-39
2023/08/04 08:36:00;;;;;;;0.40;0.40;;;23.80;63.90;;;24.23;48.94;94559.56;5077853;28;20192;-36
2023/08/04 08:38:27;;;;;;;0.40;0.40;;;23.90;64.00;;;24.25;48.81;94565.44;5077761;28;20523;-39
2023/08/04 08:40:54;;;;;;;0.50;0.50;;;23.90;64.00;;;24.26;48.93;94557.09;5076490;28;20211;-39
2023/08/04 08:43:22;;;;;;;0.38;0.38;;;23.90;64.00;;;24.27;48.93;94558.69;5077363;28;20253;-36
2023/08/04 08:45:52;;;;;;;0.30;0.30;;;23.90;63.90;;;24.29;48.63;94561.91;5077565;28;20245;-36
2023/08/04 08:48:19;;;;;;;0.38;0.38;;;23.90;63.90;;;24.31;48.62;94558.91;5077377;28;20254;-47
2023/08/04 08:50:54;;;;;;;0.30;0.30;;;23.90;63.80;;;24.34;48.87;94550.31;5077466;28;20230;-36
2023/08/04 08:53:25;;;;;;;0.30;0.30;;;24.00;63.90;;;24.35;48.66;94551.09;5077051;28;20279;-37
2023/08/04 08:55:52;;;;;;;0.30;0.30;;;24.00;63.80;;;24.37;48.91;94554.31;5076430;28;20184;-39
2023/08/04 08:58:19;;;;;;;0.40;0.40;;;24.00;63.80;;;24.39;48.59;94555.59;5076468;28;20588;-39
2023/08/04 09:00:47;;;;;;;0.40;0.40;;;24.00;63.90;;;24.40;48.61;94554.53;5076750;28;20213;-37
2023/08/04 09:03:15;;;;;;;0.38;0.38;;;24.00;63.90;;;24.42;48.77;94549.66;5059636;28;20612;-36
2023/08/04 09:05:42;;;;;;;0.40;0.40;;;24.00;63.90;;;24.44;48.78;94544.03;5076831;28;20189;-39
2023/08/04 09:08:09;;;;;;;0.50;0.50;;;24.00;63.90;;;24.45;48.74;94542.94;5077694;28;20635;-36
2023/08/04 09:10:37;;;;;;;0.35;0.35;;;24.00;63.90;;;24.46;48.83;94534.59;5076786;28;20208;-40
2023/08/04 09:13:09;;;;;;;0.40;0.40;;;24.00;63.90;;;24.48;48.41;94526.25;5076040;28;20209;-37
2023/08/04 09:15:49;;;;;;;0.30;0.30;;;24.00;63.70;;;24.49;48.64;94530.53;5076557;28;20284;-39
2023/08/04 09:18:28;;;;;;;0.30;0.30;;;24.10;63.80;;;24.51;48.62;94538.28;5075687;28;20195;-37
2023/08/04 09:21:07;;;;;;;0.30;0.30;;;24.10;63.80;;;24.52;48.54;94542.56;5076363;28;20196;-37
2023/08/04 09:23:37;;;;;;;0.40;0.40;;;24.10;63.80;;;24.53;48.69;94547.63;5076873;28;20181;-39
2023/08/04 09:26:04;;;;;;;0.40;0.40;;;24.10;63.80;;;24.54;48.61;94551.91;5076448;28;20208;-36
2023/08/04 09:28:31;;;;;;;0.30;0.30;;;24.10;63.80;;;24.58;48.36;94555.63;5076186;28;20659;-36
2023/08/04 09:31:05;;;;;;;0.50;0.50;;;24.10;63.80;;;24.59;48.60;94549.16;5075871;28;20266;-36
2023/08/04 09:33:37;;;;;;;0.43;0.43;;;24.10;63.70;;;24.61;48.52;94548.88;5076501;28;20211;-40
2023/08/04 09:36:16;;;;;;;0.40;0.40;;;24.20;63.80;;;24.64;48.56;94550.97;5075250;28;20614;-39
2023/08/04 09:38:44;;;;;;;0.40;0.40;;;24.20;63.70;;;24.64;48.47;94550.97;5075267;28;20654;-37
2023/08/04 09:41:14;;;;;;;0.50;0.50;;;24.20;63.80;;;24.67;48.59;94555.81;5076001;28;20256;-39
2023/08/04 09:43:52;;;;;;;0.38;0.38;;;24.20;63.70;;;24.70;48.60;94554.41;5076798;28;20190;-36
2023/08/04 09:46:19;;;;;;;0.40;0.40;;;24.30;63.70;;;24.70;48.42;94544.47;5075881;28;20585;-36
2023/08/04 09:48:47;;;;;;;0.40;0.40;;;24.30;63.70;;;24.73;48.35;94549.28;5076149;28;20200;-36
2023/08/04 09:51:19;;;;;;;0.30;0.30;;;24.30;63.60;;;24.76;48.21;94555.94;5074862;28;20283;-36
2023/08/04 09:53:48;;;;;;;0.30;0.30;;;24.30;63.50;;;24.77;48.21;94554.84;5075260;28;20246;-36
2023/08/04 09:56:20;;;;;;;0.40;0.40;;;24.30;63.50;;;24.80;48.51;94559.63;5076006;28;20224;-36
2023/08/04 09:58:48;;;;;;;0.40;0.40;;;24.30;63.40;;;24.81;48.28;94573.84;5075034;28;20189;-36
2023/08/04 10:01:20;;;;;;;0.50;0.50;;;24.30;63.50;;;24.84;47.97;94581.31;5075846;28;20200;-36
2023/08/04 10:03:55;;;;;;;0.32;0.32;;;24.40;63.40;;;24.85;48.11;94570.31;5076081;28;20189;-36
2023/08/04 10:06:26;;;;;;;0.50;0.50;;;24.40;63.40;;;24.88;48.00;94563.56;5075597;28;20218;-36
2023/08/04 10:08:55;;;;;;;0.30;0.30;;;24.40;63.40;;;24.89;48.07;94562.44;5075410;28;20572;-36
2023/08/04 10:11:23;;;;;;;0.30;0.30;;;24.40;63.40;;;24.90;47.86;94556.00;5075378;28;20208;-37
2023/08/04 10:13:54;;;;;;;0.55;0.55;;;24.40;63.40;;;24.92;47.76;94559.97;5075616;28;20540;-36
2023/08/04 10:16:31;;;;;;;0.40;0.40;;;24.50;63.40;;;24.94;48.20;94571.22;5074737;28;20245;-39
2023/08/04 10:19:05;;;;;;;0.30;0.30;;;24.50;63.20;;;24.96;47.58;94565.56;5075447;28;20265;-39
2023/08/04 10:21:40;;;;;;;0.40;0.40;;;24.50;63.10;;;24.98;47.76;94571.44;5074439;28;20621;-39
2023/08/04 10:24:10;;;;;;;0.30;0.30;;;24.50;63.20;;;24.99;47.56;94564.22;5075369;28;20533;-37